UKV24DO NFFN-NSFA
Flight info
| Callsign | UKV24DO |
|---|---|
| Flight time | 1h 35m |
| Altitude | 39000 |
| Route | ALPHA NN R453 UVUTI UVUTI2C |
| Aircraft | A319/M-SDE3FGHIRWY/LB1 |
Departure
| Time | 2026-05-04 21:07 |
|---|---|
| Airport | Nadi International Airport (NFFN) |
Arrival
| Time | 2026-05-04 22:43 |
|---|---|
| Airport | Faleolo International Airport (NSFA) |
| Time | Latitude | Longitude | Altitude | Speed | Heading |
|---|---|---|---|---|---|
| 2026-05-04 20:46 | -17.75253 | 177.45228 | 47 ft | 0 kts | 195° |
| 2026-05-04 21:00 | -17.75232 | 177.45234 | 45 ft | 4 kts | 197° |
| 2026-05-04 21:01 | -17.75206 | 177.45243 | 44 ft | 4 kts | 204° |
| 2026-05-04 21:01 | -17.75184 | 177.45257 | 47 ft | 4 kts | 232° |
| 2026-05-04 21:01 | -17.75177 | 177.45274 | 43 ft | 0 kts | 283° |
| 2026-05-04 21:04 | -17.75173 | 177.45256 | 45 ft | 5 kts | 283° |
| 2026-05-04 21:04 | -17.75157 | 177.45216 | 44 ft | 7 kts | 316° |
| 2026-05-04 21:05 | -17.75109 | 177.45181 | 47 ft | 10 kts | 324° |
| 2026-05-04 21:05 | -17.75074 | 177.45115 | 47 ft | 12 kts | 284° |
| 2026-05-04 21:05 | -17.75053 | 177.45024 | 47 ft | 14 kts | 284° |
| 2026-05-04 21:05 | -17.75042 | 177.44915 | 47 ft | 16 kts | 278° |
| 2026-05-04 21:06 | -17.75013 | 177.44793 | 44 ft | 16 kts | 284° |
| 2026-05-04 21:06 | -17.75018 | 177.44719 | 44 ft | 11 kts | 225° |
| 2026-05-04 21:06 | -17.75136 | 177.44628 | 44 ft | 47 kts | 217° |
| 2026-05-04 21:06 | -17.75560 | 177.44286 | 46 ft | 107 kts | 217° |
| 2026-05-04 21:07 | -17.76295 | 177.43696 | 61 ft | 156 kts | 216° |
| 2026-05-04 21:07 | -17.77165 | 177.42987 | 592 ft | 160 kts | 217° |
| 2026-05-04 21:07 | -17.78053 | 177.42254 | 1178 ft | 165 kts | 214° |
| 2026-05-04 21:07 | -17.78964 | 177.41507 | 1799 ft | 168 kts | 214° |
| 2026-05-04 21:08 | -17.79915 | 177.40731 | 2273 ft | 180 kts | 214° |
| 2026-05-04 21:08 | -17.80923 | 177.39862 | 2692 ft | 197 kts | 224° |
| 2026-05-04 21:08 | -17.81440 | 177.38464 | 3010 ft | 223 kts | 271° |
| 2026-05-04 21:08 | -17.80866 | 177.36912 | 3459 ft | 241 kts | 314° |
| 2026-05-04 21:09 | -17.79405 | 177.36051 | 4107 ft | 249 kts | 353° |
| 2026-05-04 21:09 | -17.77644 | 177.36151 | 4815 ft | 261 kts | 13° |
| 2026-05-04 21:09 | -17.75869 | 177.36665 | 5661 ft | 269 kts | 18° |
| 2026-05-04 21:09 | -17.74063 | 177.37283 | 6529 ft | 276 kts | 18° |
| 2026-05-04 21:10 | -17.72206 | 177.37887 | 7364 ft | 283 kts | 16° |
| 2026-05-04 21:10 | -17.70284 | 177.38441 | 8177 ft | 290 kts | 14° |
| 2026-05-04 21:10 | -17.68329 | 177.39031 | 9012 ft | 296 kts | 22° |
| 2026-05-04 21:10 | -17.66553 | 177.40147 | 9846 ft | 302 kts | 40° |
| 2026-05-04 21:11 | -17.65166 | 177.41816 | 10580 ft | 307 kts | 59° |
| 2026-05-04 21:11 | -17.64319 | 177.43914 | 11063 ft | 323 kts | 75° |
| 2026-05-04 21:11 | -17.63714 | 177.46240 | 11299 ft | 346 kts | 76° |
| 2026-05-04 21:11 | -17.63087 | 177.48736 | 11737 ft | 359 kts | 76° |
| 2026-05-04 21:12 | -17.62449 | 177.51291 | 12362 ft | 366 kts | 76° |
| 2026-05-04 21:12 | -17.61794 | 177.53892 | 13002 ft | 372 kts | 76° |
| 2026-05-04 21:12 | -17.61122 | 177.56530 | 13655 ft | 377 kts | 75° |
| 2026-05-04 21:12 | -17.60431 | 177.59210 | 14226 ft | 382 kts | 75° |
| 2026-05-04 21:13 | -17.59729 | 177.61914 | 14814 ft | 386 kts | 75° |
| 2026-05-04 21:13 | -17.59018 | 177.64642 | 15395 ft | 390 kts | 75° |
| 2026-05-04 21:13 | -17.58300 | 177.67400 | 16004 ft | 394 kts | 75° |
| 2026-05-04 21:13 | -17.57576 | 177.70183 | 16599 ft | 398 kts | 75° |
| 2026-05-04 21:14 | -17.56849 | 177.72996 | 17203 ft | 401 kts | 75° |
| 2026-05-04 21:14 | -17.56116 | 177.75836 | 17792 ft | 405 kts | 75° |
| 2026-05-04 21:14 | -17.55626 | 177.77731 | 18184 ft | 408 kts | 75° |
| 2026-05-04 21:14 | -17.54879 | 177.80619 | 18706 ft | 412 kts | 75° |
| 2026-05-04 21:15 | -17.54124 | 177.83532 | 19207 ft | 417 kts | 75° |
| 2026-05-04 21:15 | -17.53358 | 177.86481 | 19695 ft | 421 kts | 75° |
| 2026-05-04 21:15 | -17.52586 | 177.89456 | 20188 ft | 426 kts | 75° |
| 2026-05-04 21:15 | -17.51548 | 177.93456 | 20833 ft | 432 kts | 75° |
| 2026-05-04 21:16 | -17.51014 | 177.95513 | 21158 ft | 435 kts | 76° |
| 2026-05-04 21:16 | -17.50217 | 177.98585 | 21642 ft | 439 kts | 76° |
| 2026-05-04 21:16 | -17.49421 | 178.01644 | 22132 ft | 443 kts | 76° |
| 2026-05-04 21:16 | -17.48605 | 178.04774 | 22586 ft | 447 kts | 76° |
| 2026-05-04 21:17 | -17.47780 | 178.07932 | 23018 ft | 452 kts | 76° |
| 2026-05-04 21:17 | -17.46946 | 178.11124 | 23460 ft | 456 kts | 76° |
| 2026-05-04 21:17 | -17.46104 | 178.14353 | 23838 ft | 460 kts | 76° |
| 2026-05-04 21:17 | -17.45257 | 178.17609 | 24170 ft | 463 kts | 76° |
| 2026-05-04 21:18 | -17.44403 | 178.20883 | 24524 ft | 467 kts | 76° |
| 2026-05-04 21:18 | -17.43554 | 178.24129 | 24875 ft | 470 kts | 76° |
| 2026-05-04 21:18 | -17.42686 | 178.27441 | 25232 ft | 473 kts | 76° |
| 2026-05-04 21:18 | -17.41811 | 178.30774 | 25587 ft | 476 kts | 76° |
| 2026-05-04 21:19 | -17.40927 | 178.34134 | 25930 ft | 479 kts | 76° |
| 2026-05-04 21:19 | -17.40041 | 178.37507 | 26279 ft | 482 kts | 76° |
| 2026-05-04 21:19 | -17.39149 | 178.40905 | 26621 ft | 485 kts | 76° |
| 2026-05-04 21:19 | -17.38252 | 178.44318 | 26937 ft | 488 kts | 76° |
| 2026-05-04 21:20 | -17.37347 | 178.47752 | 27289 ft | 490 kts | 76° |
| 2026-05-04 21:20 | -17.36436 | 178.51210 | 27591 ft | 494 kts | 75° |
| 2026-05-04 21:20 | -17.35521 | 178.54688 | 27903 ft | 498 kts | 75° |
| 2026-05-04 21:20 | -17.34599 | 178.58193 | 28225 ft | 501 kts | 75° |
| 2026-05-04 21:21 | -17.33669 | 178.61719 | 28548 ft | 504 kts | 75° |
| 2026-05-04 21:21 | -17.32732 | 178.65260 | 28864 ft | 507 kts | 75° |
| 2026-05-04 21:21 | -17.31789 | 178.68821 | 29171 ft | 510 kts | 75° |
| 2026-05-04 21:21 | -17.30851 | 178.72359 | 29475 ft | 512 kts | 75° |
| 2026-05-04 21:22 | -17.29896 | 178.75965 | 29770 ft | 515 kts | 75° |
| 2026-05-04 21:22 | -17.28937 | 178.79586 | 30055 ft | 518 kts | 75° |
| 2026-05-04 21:22 | -17.27971 | 178.83230 | 30304 ft | 521 kts | 75° |
| 2026-05-04 21:22 | -17.27001 | 178.86884 | 30570 ft | 523 kts | 75° |
| 2026-05-04 21:23 | -17.26012 | 178.90608 | 30811 ft | 525 kts | 75° |
| 2026-05-04 21:23 | -17.25045 | 178.94246 | 31054 ft | 527 kts | 75° |
| 2026-05-04 21:23 | -17.24058 | 178.97956 | 31303 ft | 529 kts | 75° |
| 2026-05-04 21:23 | -17.23066 | 179.01681 | 31618 ft | 529 kts | 75° |
| 2026-05-04 21:24 | -17.22076 | 179.05389 | 31990 ft | 528 kts | 75° |
| 2026-05-04 21:24 | -17.21062 | 179.09084 | 32359 ft | 528 kts | 73° |
| 2026-05-04 21:24 | -17.19930 | 179.12731 | 32732 ft | 527 kts | 71° |
| 2026-05-04 21:24 | -17.18679 | 179.16338 | 33113 ft | 527 kts | 70° |
| 2026-05-04 21:25 | -17.17353 | 179.19912 | 33500 ft | 526 kts | 69° |
| 2026-05-04 21:25 | -17.16003 | 179.23466 | 33886 ft | 526 kts | 69° |
| 2026-05-04 21:25 | -17.14682 | 179.26974 | 34250 ft | 526 kts | 69° |
| 2026-05-04 21:25 | -17.13366 | 179.30557 | 34609 ft | 525 kts | 69° |
| 2026-05-04 21:26 | -17.12091 | 179.34123 | 34963 ft | 523 kts | 70° |
| 2026-05-04 21:26 | -17.10837 | 179.37694 | 35331 ft | 522 kts | 70° |
| 2026-05-04 21:26 | -17.09592 | 179.41260 | 35684 ft | 521 kts | 70° |
| 2026-05-04 21:26 | -17.08349 | 179.44813 | 36040 ft | 520 kts | 69° |
| 2026-05-04 21:27 | -17.07098 | 179.48360 | 36393 ft | 519 kts | 69° |
| 2026-05-04 21:27 | -17.05857 | 179.51854 | 36730 ft | 518 kts | 69° |
| 2026-05-04 21:27 | -17.04601 | 179.55375 | 37028 ft | 517 kts | 68° |
| 2026-05-04 21:27 | -17.03343 | 179.58894 | 37415 ft | 515 kts | 68° |
| 2026-05-04 21:28 | -17.02095 | 179.62395 | 37795 ft | 513 kts | 68° |
| 2026-05-04 21:28 | -17.00851 | 179.65885 | 38141 ft | 512 kts | 68° |
| 2026-05-04 21:28 | -16.99611 | 179.69362 | 38469 ft | 511 kts | 68° |
| 2026-05-04 21:28 | -16.98373 | 179.72834 | 38767 ft | 510 kts | 67° |
| 2026-05-04 21:29 | -16.97136 | 179.76307 | 38922 ft | 510 kts | 68° |
| 2026-05-04 21:29 | -16.95901 | 179.79771 | 38963 ft | 509 kts | 67° |
| 2026-05-04 21:29 | -16.93426 | 179.86693 | 38968 ft | 508 kts | 67° |
| 2026-05-04 21:30 | -16.90965 | 179.93561 | 38972 ft | 508 kts | 67° |
| 2026-05-04 21:30 | -16.88484 | -179.99531 | 38982 ft | 508 kts | 67° |
| 2026-05-04 21:31 | -16.84766 | -179.89177 | 38952 ft | 507 kts | 66° |
| 2026-05-04 21:32 | -16.82285 | -179.82277 | 38956 ft | 507 kts | 66° |
| 2026-05-04 21:32 | -16.79804 | -179.75389 | 38958 ft | 507 kts | 66° |
| 2026-05-04 21:33 | -16.77318 | -179.68495 | 38960 ft | 508 kts | 66° |
| 2026-05-04 21:33 | -16.74836 | -179.61593 | 38964 ft | 508 kts | 66° |
| 2026-05-04 21:34 | -16.72365 | -179.54737 | 38968 ft | 508 kts | 66° |
| 2026-05-04 21:34 | -16.69861 | -179.47837 | 38946 ft | 508 kts | 66° |
| 2026-05-04 21:35 | -16.67356 | -179.40951 | 38957 ft | 507 kts | 66° |
| 2026-05-04 21:35 | -16.64864 | -179.34078 | 38965 ft | 506 kts | 66° |
| 2026-05-04 21:36 | -16.62392 | -179.27260 | 38954 ft | 506 kts | 66° |
| 2026-05-04 21:36 | -16.59908 | -179.20391 | 38965 ft | 505 kts | 66° |
| 2026-05-04 21:37 | -16.57415 | -179.13531 | 38964 ft | 505 kts | 66° |
| 2026-05-04 21:37 | -16.54926 | -179.06737 | 38960 ft | 505 kts | 66° |
| 2026-05-04 21:38 | -16.52427 | -178.99895 | 38962 ft | 505 kts | 66° |
| 2026-05-04 21:38 | -16.49932 | -178.93055 | 38964 ft | 505 kts | 66° |
| 2026-05-04 21:39 | -16.47430 | -178.86202 | 38959 ft | 505 kts | 66° |
| 2026-05-04 21:39 | -16.44923 | -178.79353 | 38959 ft | 505 kts | 65° |
| 2026-05-04 21:40 | -16.42422 | -178.72517 | 38955 ft | 505 kts | 65° |
| 2026-05-04 21:40 | -16.39916 | -178.65682 | 38957 ft | 505 kts | 65° |
| 2026-05-04 21:41 | -16.37408 | -178.58864 | 38954 ft | 504 kts | 65° |
| 2026-05-04 21:41 | -16.34899 | -178.52039 | 38955 ft | 504 kts | 65° |
| 2026-05-04 21:42 | -16.32410 | -178.45259 | 38922 ft | 503 kts | 65° |
| 2026-05-04 21:42 | -16.29898 | -178.38456 | 38939 ft | 503 kts | 65° |
| 2026-05-04 21:43 | -16.27387 | -178.31666 | 38942 ft | 502 kts | 65° |
| 2026-05-04 21:43 | -16.24888 | -178.24888 | 38942 ft | 501 kts | 65° |
| 2026-05-04 21:44 | -16.22388 | -178.18112 | 38941 ft | 501 kts | 65° |
| 2026-05-04 21:44 | -16.19901 | -178.11341 | 38937 ft | 501 kts | 65° |
| 2026-05-04 21:45 | -16.17407 | -178.04565 | 38934 ft | 500 kts | 65° |
| 2026-05-04 21:45 | -16.14926 | -177.97838 | 38934 ft | 500 kts | 65° |
| 2026-05-04 21:46 | -16.12424 | -177.91097 | 38934 ft | 500 kts | 64° |
| 2026-05-04 21:46 | -16.09920 | -177.84349 | 38936 ft | 500 kts | 64° |
| 2026-05-04 21:47 | -16.07419 | -177.77605 | 38937 ft | 500 kts | 64° |
| 2026-05-04 21:47 | -16.04914 | -177.70867 | 38921 ft | 499 kts | 64° |
| 2026-05-04 21:48 | -16.02414 | -177.64140 | 38928 ft | 499 kts | 64° |
| 2026-05-04 21:48 | -15.99936 | -177.57450 | 38930 ft | 499 kts | 65° |
| 2026-05-04 21:49 | -15.97442 | -177.50725 | 38912 ft | 498 kts | 65° |
| 2026-05-04 21:49 | -15.94930 | -177.43999 | 38919 ft | 498 kts | 65° |
| 2026-05-04 21:50 | -15.92426 | -177.37289 | 38920 ft | 498 kts | 65° |
| 2026-05-04 21:50 | -15.89928 | -177.30618 | 38920 ft | 498 kts | 64° |
| 2026-05-04 21:51 | -15.87418 | -177.23907 | 38927 ft | 498 kts | 64° |
| 2026-05-04 21:51 | -15.84910 | -177.17190 | 38932 ft | 498 kts | 64° |
| 2026-05-04 21:52 | -15.82403 | -177.10488 | 38935 ft | 498 kts | 64° |
| 2026-05-04 21:52 | -15.79886 | -177.03787 | 38935 ft | 498 kts | 64° |
| 2026-05-04 21:53 | -15.77353 | -176.97081 | 38934 ft | 498 kts | 64° |
| 2026-05-04 21:53 | -15.74842 | -176.90387 | 38929 ft | 497 kts | 64° |
| 2026-05-04 21:54 | -15.72330 | -176.83704 | 38935 ft | 497 kts | 64° |
| 2026-05-04 21:54 | -15.69830 | -176.77072 | 38935 ft | 496 kts | 64° |
| 2026-05-04 21:55 | -15.67322 | -176.70410 | 38930 ft | 496 kts | 64° |
| 2026-05-04 21:55 | -15.64802 | -176.63741 | 38920 ft | 495 kts | 64° |
| 2026-05-04 21:56 | -15.62302 | -176.57128 | 38918 ft | 495 kts | 64° |
| 2026-05-04 21:56 | -15.59785 | -176.50483 | 38907 ft | 495 kts | 64° |
| 2026-05-04 21:57 | -15.57266 | -176.43831 | 38919 ft | 495 kts | 64° |
| 2026-05-04 21:57 | -15.54747 | -176.37187 | 38925 ft | 495 kts | 64° |
| 2026-05-04 21:58 | -15.52232 | -176.30540 | 38926 ft | 494 kts | 64° |
| 2026-05-04 21:58 | -15.49712 | -176.23914 | 38928 ft | 494 kts | 64° |
| 2026-05-04 21:59 | -15.47187 | -176.17279 | 38920 ft | 494 kts | 64° |
| 2026-05-04 21:59 | -15.44682 | -176.10705 | 38939 ft | 492 kts | 64° |
| 2026-05-04 22:00 | -15.42169 | -176.04113 | 38943 ft | 491 kts | 64° |
| 2026-05-04 22:00 | -15.39660 | -175.97529 | 38942 ft | 490 kts | 64° |
| 2026-05-04 22:01 | -15.37147 | -175.90966 | 38939 ft | 489 kts | 64° |
| 2026-05-04 22:01 | -15.34662 | -175.84455 | 38936 ft | 489 kts | 64° |
| 2026-05-04 22:02 | -15.32155 | -175.77901 | 38934 ft | 489 kts | 64° |
| 2026-05-04 22:02 | -15.29648 | -175.71351 | 38932 ft | 489 kts | 64° |
| 2026-05-04 22:03 | -15.27144 | -175.64807 | 38932 ft | 489 kts | 64° |
| 2026-05-04 22:03 | -15.24629 | -175.58265 | 38929 ft | 489 kts | 64° |
| 2026-05-04 22:04 | -15.22113 | -175.51725 | 38928 ft | 488 kts | 63° |
| 2026-05-04 22:04 | -15.19604 | -175.45199 | 38933 ft | 488 kts | 63° |
| 2026-05-04 22:05 | -15.17109 | -175.38723 | 38933 ft | 487 kts | 63° |
| 2026-05-04 22:05 | -15.14591 | -175.32200 | 38943 ft | 486 kts | 63° |
| 2026-05-04 22:06 | -15.12077 | -175.25688 | 38940 ft | 486 kts | 63° |
| 2026-05-04 22:06 | -15.09581 | -175.19226 | 38938 ft | 485 kts | 63° |
| 2026-05-04 22:07 | -15.07075 | -175.12740 | 38936 ft | 485 kts | 63° |
| 2026-05-04 22:07 | -15.04565 | -175.06262 | 38932 ft | 485 kts | 63° |
| 2026-05-04 22:08 | -15.02473 | -175.00883 | 38936 ft | 485 kts | 63° |
| 2026-05-04 22:08 | -14.99962 | -174.94413 | 38936 ft | 484 kts | 64° |
| 2026-05-04 22:09 | -14.97461 | -174.87947 | 38930 ft | 484 kts | 64° |
| 2026-05-04 22:09 | -14.94957 | -174.81493 | 38931 ft | 484 kts | 63° |
| 2026-05-04 22:10 | -14.92445 | -174.75040 | 38933 ft | 483 kts | 63° |
| 2026-05-04 22:10 | -14.89929 | -174.68593 | 38932 ft | 483 kts | 63° |
| 2026-05-04 22:11 | -14.87417 | -174.62144 | 38932 ft | 483 kts | 64° |
| 2026-05-04 22:11 | -14.84905 | -174.55704 | 38919 ft | 483 kts | 64° |
| 2026-05-04 22:12 | -14.82393 | -174.49257 | 38915 ft | 484 kts | 64° |
| 2026-05-04 22:12 | -14.79873 | -174.42804 | 38916 ft | 484 kts | 64° |
| 2026-05-04 22:13 | -14.77339 | -174.36352 | 38922 ft | 485 kts | 64° |
| 2026-05-04 22:13 | -14.74812 | -174.29893 | 38924 ft | 485 kts | 64° |
| 2026-05-04 22:14 | -14.72283 | -174.23436 | 38920 ft | 485 kts | 65° |
| 2026-05-04 22:14 | -14.69747 | -174.16989 | 38923 ft | 484 kts | 65° |
| 2026-05-04 22:15 | -14.67232 | -174.10588 | 38927 ft | 484 kts | 65° |
| 2026-05-04 22:15 | -14.64707 | -174.04144 | 38929 ft | 483 kts | 65° |
| 2026-05-04 22:16 | -14.62174 | -173.97714 | 38927 ft | 483 kts | 65° |
| 2026-05-04 22:16 | -14.59632 | -173.91279 | 38928 ft | 483 kts | 65° |
| 2026-05-04 22:17 | -14.57103 | -173.84861 | 38763 ft | 480 kts | 64° |
| 2026-05-04 22:17 | -14.55851 | -173.81676 | 38523 ft | 478 kts | 64° |
| 2026-05-04 22:17 | -14.54601 | -173.78496 | 38253 ft | 477 kts | 64° |
| 2026-05-04 22:17 | -14.53351 | -173.75321 | 37977 ft | 477 kts | 64° |
| 2026-05-04 22:18 | -14.52091 | -173.72140 | 37317 ft | 480 kts | 64° |
| 2026-05-04 22:18 | -14.50833 | -173.68978 | 36584 ft | 484 kts | 64° |
| 2026-05-04 22:18 | -14.49551 | -173.65750 | 35801 ft | 488 kts | 65° |
| 2026-05-04 22:18 | -14.48261 | -173.62496 | 34961 ft | 493 kts | 65° |
| 2026-05-04 22:19 | -14.46956 | -173.59196 | 34047 ft | 499 kts | 65° |
| 2026-05-04 22:19 | -14.45639 | -173.55864 | 33127 ft | 503 kts | 65° |
| 2026-05-04 22:19 | -14.44324 | -173.52537 | 32429 ft | 500 kts | 65° |
| 2026-05-04 22:19 | -14.43014 | -173.49227 | 31784 ft | 496 kts | 65° |
| 2026-05-04 22:20 | -14.41714 | -173.45942 | 31035 ft | 494 kts | 65° |
| 2026-05-04 22:20 | -14.40415 | -173.42668 | 30296 ft | 492 kts | 65° |
| 2026-05-04 22:20 | -14.39119 | -173.39409 | 29713 ft | 487 kts | 65° |
| 2026-05-04 22:20 | -14.37842 | -173.36192 | 28954 ft | 483 kts | 65° |
| 2026-05-04 22:21 | -14.36580 | -173.33012 | 28331 ft | 477 kts | 65° |
| 2026-05-04 22:21 | -14.35322 | -173.29850 | 27709 ft | 472 kts | 65° |
| 2026-05-04 22:21 | -14.34082 | -173.26732 | 27107 ft | 467 kts | 65° |
| 2026-05-04 22:21 | -14.32872 | -173.23687 | 26518 ft | 462 kts | 65° |
| 2026-05-04 22:22 | -14.31654 | -173.20624 | 25941 ft | 458 kts | 65° |
| 2026-05-04 22:22 | -14.30452 | -173.17601 | 25376 ft | 453 kts | 65° |
| 2026-05-04 22:22 | -14.29261 | -173.14608 | 24829 ft | 448 kts | 65° |
| 2026-05-04 22:22 | -14.28083 | -173.11647 | 24293 ft | 444 kts | 65° |
| 2026-05-04 22:23 | -14.26914 | -173.08721 | 23789 ft | 439 kts | 65° |
| 2026-05-04 22:23 | -14.25770 | -173.05864 | 23247 ft | 435 kts | 65° |
| 2026-05-04 22:23 | -14.24627 | -173.02999 | 22731 ft | 429 kts | 65° |
| 2026-05-04 22:23 | -14.23505 | -173.00180 | 22243 ft | 424 kts | 65° |
| 2026-05-04 22:24 | -14.22385 | -172.97377 | 21733 ft | 420 kts | 65° |
| 2026-05-04 22:24 | -14.21272 | -172.94604 | 21224 ft | 417 kts | 64° |
| 2026-05-04 22:24 | -14.20162 | -172.91844 | 20696 ft | 414 kts | 64° |
| 2026-05-04 22:24 | -14.19068 | -172.89113 | 20174 ft | 411 kts | 65° |
| 2026-05-04 22:25 | -14.17983 | -172.86394 | 19636 ft | 409 kts | 65° |
| 2026-05-04 22:25 | -14.16902 | -172.83691 | 19088 ft | 407 kts | 65° |
| 2026-05-04 22:25 | -14.15830 | -172.81004 | 18543 ft | 405 kts | 65° |
| 2026-05-04 22:25 | -14.14773 | -172.78353 | 17958 ft | 403 kts | 65° |
| 2026-05-04 22:26 | -14.13710 | -172.75690 | 17382 ft | 399 kts | 64° |
| 2026-05-04 22:26 | -14.12660 | -172.73062 | 16839 ft | 394 kts | 64° |
| 2026-05-04 22:26 | -14.11620 | -172.70464 | 16296 ft | 390 kts | 64° |
| 2026-05-04 22:26 | -14.10589 | -172.67894 | 15755 ft | 386 kts | 64° |
| 2026-05-04 22:27 | -14.09567 | -172.65352 | 15224 ft | 382 kts | 64° |
| 2026-05-04 22:27 | -14.08554 | -172.62834 | 14688 ft | 379 kts | 64° |
| 2026-05-04 22:27 | -14.07559 | -172.60363 | 14163 ft | 376 kts | 64° |
| 2026-05-04 22:27 | -14.06559 | -172.57881 | 13621 ft | 374 kts | 64° |
| 2026-05-04 22:28 | -14.05569 | -172.55418 | 13057 ft | 370 kts | 64° |
| 2026-05-04 22:28 | -14.04594 | -172.52984 | 12536 ft | 366 kts | 64° |
| 2026-05-04 22:28 | -14.03627 | -172.50576 | 12022 ft | 362 kts | 64° |
| 2026-05-04 22:28 | -14.02670 | -172.48196 | 11510 ft | 358 kts | 64° |
| 2026-05-04 22:29 | -14.01714 | -172.45820 | 10918 ft | 358 kts | 64° |
| 2026-05-04 22:29 | -14.00768 | -172.43492 | 10560 ft | 350 kts | 64° |
| 2026-05-04 22:29 | -13.99828 | -172.41205 | 10288 ft | 340 kts | 64° |
| 2026-05-04 22:29 | -13.98923 | -172.39007 | 10191 ft | 327 kts | 64° |
| 2026-05-04 22:30 | -13.98054 | -172.36895 | 10052 ft | 316 kts | 64° |
| 2026-05-04 22:30 | -13.97199 | -172.34824 | 9620 ft | 312 kts | 64° |
| 2026-05-04 22:30 | -13.96353 | -172.32778 | 9166 ft | 309 kts | 64° |
| 2026-05-04 22:30 | -13.95518 | -172.30759 | 8720 ft | 305 kts | 64° |
| 2026-05-04 22:31 | -13.94700 | -172.28785 | 8286 ft | 301 kts | 64° |
| 2026-05-04 22:31 | -13.93874 | -172.26813 | 7856 ft | 300 kts | 62° |
| 2026-05-04 22:31 | -13.92616 | -172.25130 | 7428 ft | 300 kts | 36° |
| 2026-05-04 22:31 | -13.90750 | -172.24253 | 6990 ft | 294 kts | 7° |
| 2026-05-04 22:32 | -13.88761 | -172.24368 | 6603 ft | 284 kts | 341° |
| 2026-05-04 22:32 | -13.87069 | -172.25346 | 6333 ft | 278 kts | 321° |
| 2026-05-04 22:32 | -13.85537 | -172.26552 | 6038 ft | 278 kts | 322° |
| 2026-05-04 22:32 | -13.84005 | -172.27753 | 5751 ft | 274 kts | 322° |
| 2026-05-04 22:33 | -13.82521 | -172.28920 | 5511 ft | 268 kts | 322° |
| 2026-05-04 22:33 | -13.81056 | -172.30078 | 5264 ft | 263 kts | 322° |
| 2026-05-04 22:33 | -13.79612 | -172.31225 | 5030 ft | 259 kts | 322° |
| 2026-05-04 22:33 | -13.78214 | -172.32370 | 4789 ft | 255 kts | 317° |
| 2026-05-04 22:34 | -13.77278 | -172.33878 | 4541 ft | 252 kts | 287° |
| 2026-05-04 22:34 | -13.77216 | -172.35654 | 4308 ft | 253 kts | 255° |
| 2026-05-04 22:34 | -13.78071 | -172.37281 | 4067 ft | 271 kts | 228° |
| 2026-05-04 22:34 | -13.79659 | -172.38348 | 3797 ft | 276 kts | 198° |
| 2026-05-04 22:35 | -13.81532 | -172.38558 | 3554 ft | 270 kts | 173° |
| 2026-05-04 22:35 | -13.83292 | -172.37978 | 3313 ft | 265 kts | 149° |
| 2026-05-04 22:35 | -13.84654 | -172.36754 | 3072 ft | 258 kts | 125° |
| 2026-05-04 22:35 | -13.85404 | -172.35125 | 2830 ft | 256 kts | 101° |
| 2026-05-04 22:36 | -13.85443 | -172.33322 | 2601 ft | 250 kts | 79° |
| 2026-05-04 22:36 | -13.85146 | -172.31590 | 2508 ft | 239 kts | 79° |
| 2026-05-04 22:36 | -13.84875 | -172.29960 | 2511 ft | 224 kts | 79° |
| 2026-05-04 22:36 | -13.84625 | -172.28432 | 2509 ft | 211 kts | 79° |
| 2026-05-04 22:37 | -13.84381 | -172.26954 | 2511 ft | 208 kts | 79° |
| 2026-05-04 22:37 | -13.84139 | -172.25491 | 2515 ft | 207 kts | 79° |
| 2026-05-04 22:37 | -13.83896 | -172.24027 | 2513 ft | 207 kts | 79° |
| 2026-05-04 22:37 | -13.83656 | -172.22566 | 2524 ft | 207 kts | 79° |
| 2026-05-04 22:38 | -13.83415 | -172.21099 | 2514 ft | 211 kts | 79° |
| 2026-05-04 22:38 | -13.83209 | -172.19593 | 2503 ft | 212 kts | 86° |
| 2026-05-04 22:38 | -13.83194 | -172.18103 | 2489 ft | 201 kts | 89° |
| 2026-05-04 22:38 | -13.83184 | -172.16704 | 2501 ft | 193 kts | 88° |
| 2026-05-04 22:39 | -13.83170 | -172.15334 | 2417 ft | 190 kts | 88° |
| 2026-05-04 22:39 | -13.83155 | -172.13992 | 2236 ft | 183 kts | 88° |
| 2026-05-04 22:39 | -13.83141 | -172.12722 | 1991 ft | 172 kts | 88° |
| 2026-05-04 22:39 | -13.83128 | -172.11538 | 1782 ft | 162 kts | 89° |
| 2026-05-04 22:40 | -13.83115 | -172.10421 | 1590 ft | 149 kts | 89° |
| 2026-05-04 22:40 | -13.83104 | -172.09408 | 1402 ft | 136 kts | 89° |
| 2026-05-04 22:40 | -13.83093 | -172.08453 | 1231 ft | 132 kts | 89° |
| 2026-05-04 22:40 | -13.83082 | -172.07513 | 1064 ft | 130 kts | 89° |
| 2026-05-04 22:41 | -13.83071 | -172.06581 | 903 ft | 130 kts | 89° |
| 2026-05-04 22:41 | -13.83061 | -172.05656 | 743 ft | 129 kts | 89° |
| 2026-05-04 22:41 | -13.83050 | -172.04740 | 577 ft | 127 kts | 89° |
| 2026-05-04 22:41 | -13.83040 | -172.03834 | 397 ft | 126 kts | 89° |
| 2026-05-04 22:42 | -13.83030 | -172.02937 | 227 ft | 125 kts | 89° |
| 2026-05-04 22:42 | -13.83019 | -172.02045 | 72 ft | 124 kts | 88° |
| 2026-05-04 22:42 | -13.83007 | -172.01240 | 22 ft | 96 kts | 89° |
| 2026-05-04 22:42 | -13.83001 | -172.00726 | 12 ft | 54 kts | 89° |
| 2026-05-04 22:43 | -13.82995 | -172.00336 | 10 ft | 54 kts | 89° |
| 2026-05-04 22:43 | -13.82992 | -172.00032 | 12 ft | 33 kts | 89° |
| 2026-05-04 22:43 | -13.82989 | -171.99823 | 9 ft | 22 kts | 89° |
| 2026-05-04 22:43 | -13.83028 | -171.99744 | 11 ft | 12 kts | 175° |
| 2026-05-04 22:44 | -13.83103 | -171.99740 | 9 ft | 6 kts | 166° |
| 2026-05-04 22:44 | -13.83120 | -171.99692 | 9 ft | 9 kts | 90° |
| 2026-05-04 22:44 | -13.83160 | -171.99685 | 8 ft | 9 kts | 210° |
| 2026-05-04 22:44 | -13.83193 | -171.99703 | 7 ft | 1 kts | 209° |
| 2026-05-04 22:45 | -13.83197 | -171.99705 | 7 ft | 0 kts | 208° |